This is the latest recevied weather packets stored in our database for station/object KK4PWJ-13. If no packets are shown the sender has not sent any weather packets the latest 1 day(s).
| Time | Temp. | Humidity | Pressure | Rain* | Wind** | Luminosity | Snow |
|---|---|---|---|---|---|---|---|
| 1777993261 | 21.11° C | 54% | 1014.8 hPa | 0 mm | 0.45 m/s, 121° | 45 W/m² | - |
| 1777992957 | 21.11° C | 53% | 1014.9 hPa | 0 mm | 0 m/s | 43 W/m² | - |
| 1777992656 | 21.11° C | 54% | 1015 hPa | 0 mm | 0.45 m/s, 131° | 51 W/m² | - |
| 1777992353 | 20.56° C | 55% | 1015 hPa | 0 mm | 0 m/s | 40 W/m² | - |
| 1777992050 | 20.56° C | 57% | 1015.2 hPa | 0 mm | 0.89 m/s, 148° | 79 W/m² | - |
| 1777991748 | 20.56° C | 56% | 1015.1 hPa | 0 mm | 0 m/s | 39 W/m² | - |
| 1777991445 | 20.56° C | 57% | 1015.2 hPa | 0 mm | 0 m/s | 38 W/m² | - |
| 1777991142 | 20° C | 56% | 1014.9 hPa | 0 mm | 0.45 m/s, 158° | 37 W/m² | - |
| 1777990839 | 20° C | 62% | 1014.8 hPa | 0 mm | 0 m/s | 34 W/m² | - |
| 1777990537 | 19.44° C | 61% | 1014.8 hPa | 0 mm | 0 m/s | 37 W/m² | - |
| 1777990233 | 19.44° C | 62% | 1014.8 hPa | 0 mm | 0.45 m/s, 134° | 36 W/m² | - |
| 1777989930 | 18.89° C | 63% | 1014.9 hPa | 0 mm | 0 m/s | 32 W/m² | - |
| 1777989627 | 18.89° C | 63% | 1014.9 hPa | 0 mm | 0.45 m/s, 135° | 32 W/m² | - |
| 1777989323 | 18.89° C | 67% | 1015.1 hPa | 0 mm | 0 m/s | 122 W/m² | - |
| 1777989020 | 18.33° C | 66% | 1015 hPa | 0 mm | 0.89 m/s, 100° | 30 W/m² | - |
| 1777988716 | 17.78° C | 68% | 1015 hPa | 0 mm | 0.45 m/s, 97° | 29 W/m² | - |
| 1777988413 | 17.78° C | 69% | 1015 hPa | 0 mm | 0.89 m/s, 120° | 49 W/m² | - |
| 1777988110 | 17.22° C | 71% | 1014.9 hPa | 0 mm | 0 m/s | 28 W/m² | - |
| 1777987806 | 17.22° C | 71% | 1015 hPa | 0 mm | 0 m/s | 28 W/m² | - |
| 1777987503 | 16.67° C | 72% | 1015 hPa | 0 mm | 0 m/s | 29 W/m² | - |
| 1777987200 | 16.67° C | 74% | 1015 hPa | 0 mm | 0 m/s | 27 W/m² | - |
| 1777986897 | 16.11° C | 76% | 1015 hPa | 0 mm | 0 m/s | 26 W/m² | - |
| 1777986595 | 15.56° C | 77% | 1014.8 hPa | 0 mm | 0 m/s | 26 W/m² | - |
| 1777986293 | 15.56° C | 80% | 1014.8 hPa | 0 mm | 0 m/s | 25 W/m² | - |
| 1777985990 | 15° C | 81% | 1015 hPa | 0 mm | 0 m/s | 26 W/m² | - |
* Rain latest hour (hover to see other rain measurements)
** Current wind speed in m/s (hover to see current wind gust speed)